Time;durP1;ratioP1;P1;durP2;ratioP2;P2;SDS_P1;SDS_P2;PMS_P1;PMS_P2;Temp;Humidity;BMP_temperature;BMP_pressure;BME280_temperature;BME280_humidity;BME280_pressure;Samples;Min_cycle;Max_cycle;Signal;HPM_P1;HPM_P2
2023/09/25 00:01:33;;;;;;;3.28;2.63;;;11.50;99.90;;;;;;6274379;22;20086;-46
2023/09/25 00:04:00;;;;;;;4.88;3.05;;;11.50;99.90;;;;;;6274138;22;20497;-46
2023/09/25 00:06:26;;;;;;;2.90;2.58;;;11.50;99.90;;;;;;6273916;22;20060;-46
2023/09/25 00:08:51;;;;;;;3.92;2.80;;;11.50;99.90;;;;;;6273816;22;20490;-46
2023/09/25 00:11:17;;;;;;;6.45;2.85;;;11.50;99.90;;;;;;6272568;22;20022;-50
2023/09/25 00:13:43;;;;;;;3.10;2.80;;;11.60;99.90;;;;;;6273330;22;20047;-45
2023/09/25 00:16:16;;;;;;;3.35;2.75;;;11.60;99.90;;;;;;6274298;22;20046;-50
2023/09/25 00:18:42;;;;;;;4.93;3.08;;;11.60;99.90;;;;;;6274198;22;20087;-49
2023/09/25 00:21:08;;;;;;;3.28;2.92;;;11.70;99.90;;;;;;6273627;22;20470;-49
2023/09/25 00:23:33;;;;;;;4.03;3.03;;;11.80;99.90;;;;;;6273033;22;20352;-48
2023/09/25 00:26:03;;;;;;;3.72;3.22;;;11.70;99.90;;;;;;6272179;22;20130;-47
2023/09/25 00:28:29;;;;;;;3.55;3.25;;;11.80;99.90;;;;;;6272013;22;20016;-46
2023/09/25 00:30:54;;;;;;;4.47;3.30;;;11.80;99.90;;;;;;6272877;22;20038;-49
2023/09/25 00:33:20;;;;;;;4.72;3.20;;;11.80;99.90;;;;;;6273370;22;20037;-47
2023/09/25 00:35:46;;;;;;;3.97;3.33;;;11.90;99.90;;;;;;6272291;22;20007;-50
2023/09/25 00:38:13;;;;;;;3.72;2.80;;;11.90;99.90;;;;;;6273966;22;20443;-48
2023/09/25 00:40:38;;;;;;;5.97;2.90;;;11.90;99.90;;;;;;6273216;22;20015;-47
2023/09/25 00:43:05;;;;;;;5.20;2.95;;;11.90;99.90;;;;;;6273234;22;20027;-47
2023/09/25 00:45:32;;;;;;;3.80;2.97;;;11.90;99.90;;;;;;6273639;22;20142;-47
2023/09/25 00:47:59;;;;;;;4.78;3.10;;;12.00;99.90;;;;;;6274174;22;20451;-47
2023/09/25 00:50:29;;;;;;;3.47;3.10;;;11.90;99.90;;;;;;6274156;22;20016;-49
2023/09/25 00:52:56;;;;;;;4.80;3.25;;;11.90;99.90;;;;;;6274793;22;20011;-50
2023/09/25 00:55:22;;;;;;;3.92;3.38;;;11.90;99.90;;;;;;6274774;22;20047;-47
2023/09/25 00:57:49;;;;;;;4.35;3.15;;;11.80;99.90;;;;;;6275584;22;20355;-46
2023/09/25 01:00:15;;;;;;;3.58;3.13;;;11.80;99.90;;;;;;6273522;22;20027;-46
2023/09/25 01:02:41;;;;;;;3.78;2.90;;;11.80;99.90;;;;;;6274651;22;20057;-50
2023/09/25 01:05:11;;;;;;;4.57;3.30;;;11.80;99.90;;;;;;6272696;22;20087;-47
2023/09/25 01:07:37;;;;;;;3.97;2.78;;;11.70;99.90;;;;;;6274144;22;20019;-49
2023/09/25 01:10:14;;;;;;;3.67;3.25;;;11.70;99.90;;;;;;6273647;22;20007;-46
2023/09/25 01:12:40;;;;;;;4.78;3.00;;;11.70;99.90;;;;;;6272713;22;20344;-50
2023/09/25 01:15:07;;;;;;;4.07;2.92;;;11.60;99.90;;;;;;6272751;22;20081;-47
2023/09/25 01:17:33;;;;;;;4.50;3.33;;;11.60;99.90;;;;;;6271904;22;20016;-48
2023/09/25 01:20:02;;;;;;;4.25;3.10;;;11.60;99.90;;;;;;6273058;22;20050;-48
2023/09/25 01:22:27;;;;;;;4.88;3.00;;;11.60;99.90;;;;;;6274507;22;20297;-46
2023/09/25 01:24:53;;;;;;;3.55;3.15;;;11.50;99.90;;;;;;6273675;22;20114;-48
2023/09/25 01:27:19;;;;;;;5.25;3.28;;;11.50;99.90;;;;;;6273136;22;20091;-47
2023/09/25 01:29:44;;;;;;;4.88;3.60;;;11.50;99.90;;;;;;6273908;22;20020;-49
2023/09/25 01:32:12;;;;;;;4.03;3.28;;;11.40;99.90;;;;;;6273599;22;20023;-49
2023/09/25 01:34:38;;;;;;;4.15;3.40;;;11.40;99.90;;;;;;6273177;22;20030;-49
2023/09/25 01:37:04;;;;;;;4.05;3.30;;;11.40;99.90;;;;;;6271825;22;20008;-47
2023/09/25 01:39:35;;;;;;;4.50;3.63;;;11.40;99.90;;;;;;6273437;22;20060;-48
2023/09/25 01:42:00;;;;;;;4.60;4.13;;;11.40;99.90;;;;;;6271208;22;20103;-45
2023/09/25 01:44:26;;;;;;;4.35;3.95;;;11.40;99.90;;;;;;6273819;22;20007;-48
2023/09/25 01:46:52;;;;;;;4.28;3.58;;;11.30;99.90;;;;;;6273748;22;20022;-48
2023/09/25 01:49:18;;;;;;;6.35;4.20;;;11.30;99.90;;;;;;6274146;22;20023;-47
2023/09/25 01:51:44;;;;;;;5.07;4.07;;;11.30;99.90;;;;;;6275483;22;20283;-48
2023/09/25 01:54:09;;;;;;;5.55;3.92;;;11.30;99.90;;;;;;6275882;22;20016;-46
2023/09/25 01:56:35;;;;;;;4.63;4.22;;;11.30;99.90;;;;;;6275292;22;20032;-46
2023/09/25 01:59:01;;;;;;;4.63;4.22;;;11.20;99.90;;;;;;6275972;22;20303;-47
2023/09/25 02:01:26;;;;;;;5.65;4.07;;;11.20;99.90;;;;;;6275586;22;20020;-49
2023/09/25 02:03:52;;;;;;;6.25;4.20;;;11.20;99.90;;;;;;6274304;22;20091;-46
2023/09/25 02:06:17;;;;;;;5.53;4.10;;;11.20;99.90;;;;;;6275526;22;20030;-49
2023/09/25 02:08:43;;;;;;;5.10;4.25;;;11.10;99.90;;;;;;6275399;22;20513;-46
2023/09/25 02:11:09;;;;;;;7.10;4.53;;;11.10;99.90;;;;;;6276074;22;20043;-46
2023/09/25 02:13:34;;;;;;;4.80;4.38;;;11.10;99.90;;;;;;6275141;22;20491;-46
2023/09/25 02:16:00;;;;;;;5.70;4.88;;;11.10;99.90;;;;;;6275466;22;20407;-47
2023/09/25 02:18:25;;;;;;;4.57;4.18;;;11.00;99.90;;;;;;6275526;22;20065;-46
2023/09/25 02:20:51;;;;;;;6.72;4.50;;;11.00;99.90;;;;;;6245228;22;20020;-47
2023/09/25 02:23:17;;;;;;;4.35;3.95;;;11.00;99.90;;;;;;6275400;22;20008;-47
2023/09/25 02:25:42;;;;;;;5.60;3.78;;;10.90;99.90;;;;;;6272766;22;20488;-48
2023/09/25 02:28:08;;;;;;;4.65;4.10;;;10.90;99.90;;;;;;6271578;22;20348;-46
2023/09/25 02:30:34;;;;;;;4.82;3.80;;;10.80;99.90;;;;;;6274655;22;20422;-46
2023/09/25 02:33:00;;;;;;;4.88;4.43;;;10.80;99.90;;;;;;6273960;22;20019;-48
2023/09/25 02:35:25;;;;;;;7.03;4.47;;;10.80;99.90;;;;;;6274555;22;20556;-46
2023/09/25 02:37:51;;;;;;;5.13;3.95;;;10.80;99.90;;;;;;6274907;22;20039;-49
2023/09/25 02:40:17;;;;;;;5.88;4.15;;;10.80;99.90;;;;;;6274312;22;20012;-48
2023/09/25 02:42:45;;;;;;;5.15;4.05;;;10.80;99.90;;;;;;6274629;22;20035;-46
2023/09/25 02:45:11;;;;;;;4.75;4.05;;;10.90;99.90;;;;;;6247629;22;20008;-46
2023/09/25 02:47:36;;;;;;;4.38;3.97;;;10.90;99.90;;;;;;6274926;22;20339;-50
2023/09/25 02:50:02;;;;;;;6.88;3.97;;;10.80;99.90;;;;;;6272105;22;20012;-49
2023/09/25 02:52:28;;;;;;;6.30;4.43;;;10.90;99.90;;;;;;6275053;22;20062;-46
2023/09/25 02:54:54;;;;;;;4.90;4.35;;;10.90;99.90;;;;;;6274393;22;20125;-48
2023/09/25 02:57:20;;;;;;;4.18;3.67;;;10.90;99.90;;;;;;6277594;22;20362;-48
2023/09/25 02:59:46;;;;;;;4.97;3.88;;;10.90;99.90;;;;;;6275282;22;20018;-47
2023/09/25 03:02:11;;;;;;;4.07;3.63;;;10.90;99.90;;;;;;6273516;22;20023;-49
2023/09/25 03:04:37;;;;;;;4.35;3.78;;;10.90;99.90;;;;;;6274683;22;20086;-48
2023/09/25 03:07:03;;;;;;;5.30;3.92;;;10.90;99.90;;;;;;6274469;22;20082;-47
2023/09/25 03:09:29;;;;;;;3.83;3.50;;;10.90;99.90;;;;;;6274483;22;20020;-46
2023/09/25 03:11:54;;;;;;;5.03;3.80;;;10.90;99.90;;;;;;6274302;22;20486;-46
2023/09/25 03:14:20;;;;;;;4.63;3.65;;;11.00;99.90;;;;;;6275344;22;20047;-47
2023/09/25 03:16:46;;;;;;;4.85;3.42;;;10.90;99.90;;;;;;6274280;22;20012;-47
2023/09/25 03:19:12;;;;;;;3.90;3.53;;;11.00;99.90;;;;;;6274756;22;20020;-49
2023/09/25 03:21:41;;;;;;;4.38;3.97;;;10.90;99.90;;;;;;6275322;22;20309;-48
2023/09/25 03:24:07;;;;;;;3.90;3.47;;;10.90;99.90;;;;;;6275284;22;20078;-48
2023/09/25 03:26:32;;;;;;;4.00;3.60;;;11.00;99.90;;;;;;6273548;22;20090;-46
2023/09/25 03:28:58;;;;;;;5.60;3.50;;;11.00;99.90;;;;;;6273678;22;20069;-47
2023/09/25 03:31:24;;;;;;;4.85;3.47;;;11.00;99.90;;;;;;6272929;22;20091;-47
2023/09/25 03:33:50;;;;;;;3.80;3.40;;;11.00;99.90;;;;;;6272787;22;20444;-46
2023/09/25 03:36:16;;;;;;;4.00;3.70;;;11.00;99.90;;;;;;6273008;22;20008;-48
2023/09/25 03:38:42;;;;;;;4.60;3.80;;;11.00;99.90;;;;;;6273635;22;20133;-47
2023/09/25 03:41:07;;;;;;;5.00;3.90;;;11.00;99.90;;;;;;6273124;22;20019;-46
2023/09/25 03:43:33;;;;;;;3.95;3.42;;;11.00;99.90;;;;;;6247111;22;20124;-50
2023/09/25 03:45:59;;;;;;;5.20;4.32;;;11.00;99.90;;;;;;6273949;22;20019;-46
2023/09/25 03:48:24;;;;;;;5.70;3.97;;;11.00;99.90;;;;;;6273485;22;20023;-49
2023/09/25 03:50:50;;;;;;;4.60;3.53;;;11.00;99.90;;;;;;6272221;22;20019;-50
2023/09/25 03:53:16;;;;;;;5.82;4.18;;;11.00;99.90;;;;;;6274475;22;20012;-47
2023/09/25 03:55:42;;;;;;;5.90;4.10;;;11.00;99.90;;;;;;6244151;22;20458;-47
2023/09/25 03:58:07;;;;;;;3.90;3.50;;;11.00;99.90;;;;;;6273325;22;20012;-47
2023/09/25 04:00:33;;;;;;;4.53;3.65;;;11.10;99.90;;;;;;6274995;22;20114;-48
2023/09/25 04:02:58;;;;;;;4.95;3.30;;;11.00;99.90;;;;;;6274248;22;20020;-48
2023/09/25 04:05:24;;;;;;;5.07;3.92;;;11.00;99.90;;;;;;6274202;22;20354;-47
2023/09/25 04:07:50;;;;;;;5.40;3.95;;;11.00;99.90;;;;;;6246775;22;20016;-47
2023/09/25 04:10:17;;;;;;;4.85;3.85;;;11.00;99.90;;;;;;6272396;22;20007;-47
2023/09/25 04:12:42;;;;;;;4.80;4.05;;;11.00;99.90;;;;;;6273655;22;20121;-48
2023/09/25 04:15:12;;;;;;;7.28;3.85;;;11.00;99.90;;;;;;6273198;22;20442;-47
2023/09/25 04:17:38;;;;;;;5.45;3.45;;;11.00;99.90;;;;;;6274949;22;20026;-48
2023/09/25 04:20:17;;;;;;;4.45;4.03;;;11.00;99.90;;;;;;6274463;22;20122;-47
2023/09/25 04:22:45;;;;;;;4.40;4.00;;;11.00;99.90;;;;;;6274650;22;20111;-50
2023/09/25 04:25:19;;;;;;;9.50;3.92;;;11.00;99.90;;;;;;6274065;22;20388;-48
2023/09/25 04:27:55;;;;;;;5.35;3.88;;;11.10;99.90;;;;;;6273756;22;20315;-47
2023/09/25 04:30:21;;;;;;;4.70;3.55;;;11.10;99.90;;;;;;6274015;22;20038;-46
2023/09/25 04:32:49;;;;;;;5.28;3.45;;;11.10;99.90;;;;;;6274007;22;20008;-47
2023/09/25 04:35:15;;;;;;;3.70;3.40;;;11.10;99.90;;;;;;6273385;22;20022;-46
2023/09/25 04:37:44;;;;;;;4.43;3.25;;;11.10;99.90;;;;;;6273529;22;20015;-45
2023/09/25 04:40:22;;;;;;;5.13;3.63;;;11.20;99.90;;;;;;6272861;22;20083;-46
2023/09/25 04:42:52;;;;;;;5.45;3.20;;;11.10;99.90;;;;;;6273184;22;20012;-46
2023/09/25 04:45:18;;;;;;;6.25;4.03;;;11.10;99.90;;;;;;6274332;22;20404;-47
2023/09/25 04:47:48;;;;;;;3.80;3.50;;;11.10;99.90;;;;;;6272913;22;20019;-45
2023/09/25 04:50:15;;;;;;;4.60;3.50;;;11.20;99.90;;;;;;6273471;22;20016;-48
2023/09/25 04:52:42;;;;;;;4.07;3.67;;;11.20;99.90;;;;;;6271922;22;20058;-48
2023/09/25 04:55:12;;;;;;;3.97;3.60;;;11.20;99.90;;;;;;6273670;22;20126;-47
2023/09/25 04:57:39;;;;;;;4.03;3.33;;;11.20;99.90;;;;;;6273495;22;20012;-47
2023/09/25 05:02:43;;;;;;;3.90;3.22;;;11.20;99.90;;;;;;6273582;22;20102;-47
2023/09/25 05:05:08;;;;;;;5.68;3.80;;;11.30;99.90;;;;;;6273172;22;20090;-49
2023/09/25 05:07:35;;;;;;;7.18;3.42;;;11.30;99.90;;;;;;6272554;22;20050;-48
2023/09/25 05:10:00;;;;;;;3.35;2.83;;;11.30;99.90;;;;;;6273285;22;20016;-45
2023/09/25 05:12:26;;;;;;;3.65;2.83;;;11.40;99.90;;;;;;6272829;22;20086;-47
2023/09/25 05:14:52;;;;;;;3.45;2.75;;;11.40;99.90;;;;;;6273420;22;20042;-47
2023/09/25 05:17:18;;;;;;;6.57;3.13;;;11.40;99.90;;;;;;6271755;22;20012;-47
2023/09/25 05:19:43;;;;;;;3.50;2.92;;;11.50;99.90;;;;;;6272486;22;20022;-48
2023/09/25 05:22:09;;;;;;;7.43;3.22;;;11.50;99.90;;;;;;6273983;22;20030;-47
2023/09/25 05:24:35;;;;;;;4.07;2.63;;;11.50;99.90;;;;;;6275652;22;20079;-46
2023/09/25 05:27:01;;;;;;;4.30;2.88;;;11.60;99.90;;;;;;6274132;22;20051;-50
2023/09/25 05:29:26;;;;;;;3.10;2.80;;;11.60;99.90;;;;;;6276058;22;20026;-46
2023/09/25 05:31:52;;;;;;;4.88;2.72;;;11.60;99.90;;;;;;6276273;22;20088;-49
2023/09/25 05:34:18;;;;;;;5.20;3.00;;;11.60;99.90;;;;;;6275299;22;20019;-47
2023/09/25 05:36:45;;;;;;;3.40;2.70;;;11.60;99.90;;;;;;6247146;22;20042;-47
2023/09/25 05:39:10;;;;;;;4.65;2.90;;;11.70;99.90;;;;;;6275301;22;20018;-46
2023/09/25 05:41:36;;;;;;;4.82;2.65;;;11.80;99.90;;;;;;6275079;22;20086;-47
2023/09/25 05:44:02;;;;;;;4.75;2.58;;;11.90;99.90;;;;;;6269953;22;20023;-46
2023/09/25 05:46:27;;;;;;;3.75;2.83;;;11.90;99.90;;;;;;6274679;22;20069;-46
2023/09/25 05:48:53;;;;;;;7.20;2.63;;;11.90;99.90;;;;;;6272833;22;20016;-48
2023/09/25 05:51:19;;;;;;;5.22;2.50;;;12.00;99.90;;;;;;6274025;22;20019;-47
2023/09/25 05:53:45;;;;;;;4.18;2.63;;;12.00;99.90;;;;;;6275847;22;20060;-47
2023/09/25 05:56:10;;;;;;;4.32;2.60;;;12.10;99.90;;;;;;6274366;22;20016;-47
2023/09/25 05:58:37;;;;;;;4.68;2.60;;;12.20;99.90;;;;;;6274826;22;20157;-46
2023/09/25 06:01:03;;;;;;;3.30;2.35;;;12.20;99.90;;;;;;6277742;22;20095;-49
2023/09/25 06:03:28;;;;;;;3.15;2.80;;;12.30;99.90;;;;;;6274596;22;20035;-48
2023/09/25 06:05:54;;;;;;;3.47;2.80;;;12.30;99.90;;;;;;6275443;22;20027;-49
2023/09/25 06:08:19;;;;;;;4.10;2.55;;;12.40;99.90;;;;;;6275038;22;20041;-46
2023/09/25 06:10:45;;;;;;;4.05;2.97;;;12.50;99.90;;;;;;6275455;22;20069;-47
2023/09/25 06:13:11;;;;;;;5.20;2.70;;;12.50;99.90;;;;;;6246777;22;20023;-49
2023/09/25 06:15:37;;;;;;;3.67;2.90;;;12.50;99.90;;;;;;6274313;22;20012;-47
2023/09/25 06:18:09;;;;;;;2.95;2.30;;;12.60;99.90;;;;;;6273557;22;20378;-48
2023/09/25 06:20:43;;;;;;;4.43;2.50;;;12.70;99.90;;;;;;6275163;22;20022;-47
2023/09/25 06:23:09;;;;;;;3.83;2.70;;;12.80;99.90;;;;;;6275096;22;20171;-46
2023/09/25 06:25:35;;;;;;;3.22;2.30;;;12.90;99.90;;;;;;6276087;22;20050;-48
2023/09/25 06:28:02;;;;;;;3.92;2.50;;;;;;;;;;6275638;22;20016;-49
2023/09/25 06:30:30;;;;;;;3.20;2.53;;;13.00;99.90;;;;;;6274737;22;20484;-46
2023/09/25 06:32:55;;;;;;;;;;;13.10;99.90;;;;;;6275291;22;20058;-47
2023/09/25 06:35:21;;;;;;;5.13;2.38;;;13.20;99.90;;;;;;6274597;22;19923;-48
2023/09/25 06:37:47;;;;;;;4.03;2.80;;;13.30;99.90;;;;;;6273795;22;20082;-47
2023/09/25 06:40:15;;;;;;;7.75;2.70;;;13.50;99.90;;;;;;6273031;22;20478;-48
2023/09/25 06:42:41;;;;;;;3.88;2.38;;;13.70;99.90;;;;;;6273130;22;20409;-47
2023/09/25 06:45:08;;;;;;;4.85;2.50;;;14.00;99.90;;;;;;6274075;22;20086;-50
2023/09/25 06:47:36;;;;;;;4.72;2.40;;;14.10;99.90;;;;;;6273610;22;20482;-49
2023/09/25 06:50:03;;;;;;;3.72;2.13;;;14.30;99.90;;;;;;6275119;22;20092;-47
2023/09/25 06:52:29;;;;;;;5.65;2.50;;;14.40;99.90;;;;;;6274009;22;20090;-47
2023/09/25 06:54:56;;;;;;;3.45;2.63;;;14.50;99.90;;;;;;6274423;22;20092;-47
2023/09/25 06:57:22;;;;;;;5.80;2.63;;;14.70;99.90;;;;;;6274267;22;20020;-47
2023/09/25 06:59:47;;;;;;;3.22;2.50;;;14.70;99.90;;;;;;6274629;22;20012;-48
2023/09/25 07:02:13;;;;;;;2.95;2.55;;;14.70;99.90;;;;;;6276693;22;20016;-47
2023/09/25 07:04:38;;;;;;;3.20;2.40;;;14.60;99.90;;;;;;6272439;22;20011;-50
2023/09/25 07:07:05;;;;;;;4.38;2.95;;;14.60;99.90;;;;;;6275069;22;20023;-48
2023/09/25 07:09:31;;;;;;;3.90;2.58;;;14.60;99.90;;;;;;6275520;22;20470;-47
2023/09/25 07:11:56;;;;;;;4.93;2.60;;;14.70;99.90;;;;;;6274992;22;20031;-50
2023/09/25 07:14:22;;;;;;;7.15;2.70;;;14.70;99.90;;;;;;6247861;22;20020;-47
2023/09/25 07:16:48;;;;;;;3.63;2.53;;;14.80;99.90;;;;;;6274723;22;20316;-50
2023/09/25 07:19:14;;;;;;;3.83;2.58;;;14.90;99.90;;;;;;6273708;22;20049;-48
2023/09/25 07:21:41;;;;;;;3.90;2.40;;;15.10;99.90;;;;;;6275775;22;20023;-47
2023/09/25 07:24:07;;;;;;;3.95;2.45;;;15.20;99.90;;;;;;6275212;22;20020;-47
2023/09/25 07:26:33;;;;;;;4.45;2.47;;;15.40;99.90;;;;;;6276042;22;20012;-48
2023/09/25 07:28:58;;;;;;;5.32;2.60;;;15.70;99.90;;;;;;6276558;22;20016;-46
2023/09/25 07:31:24;;;;;;;4.50;2.60;;;15.80;99.90;;;;;;6276237;22;20008;-47
2023/09/25 07:33:50;;;;;;;3.70;2.40;;;16.10;99.90;;;;;;6275271;22;20024;-47
2023/09/25 07:36:19;;;;;;;3.75;2.22;;;16.10;99.90;;;;;;6275414;22;20526;-47
2023/09/25 07:38:46;;;;;;;2.80;2.28;;;16.30;99.90;;;;;;6276039;22;20023;-48
2023/09/25 07:41:12;;;;;;;3.95;2.20;;;16.40;99.90;;;;;;6276318;22;20020;-48
2023/09/25 07:43:38;;;;;;;5.65;2.30;;;16.40;99.90;;;;;;6249048;22;20008;-46
2023/09/25 07:46:04;;;;;;;5.68;2.40;;;16.60;99.90;;;;;;6276691;22;20114;-47
2023/09/25 07:48:33;;;;;;;4.25;2.33;;;16.60;99.90;;;;;;6276477;22;20047;-48
2023/09/25 07:50:58;;;;;;;2.67;2.20;;;16.60;99.90;;;;;;6275799;22;20016;-50
2023/09/25 07:53:25;;;;;;;2.55;2.03;;;16.80;99.90;;;;;;6275593;22;20011;-48
2023/09/25 07:55:51;;;;;;;3.03;2.25;;;16.70;99.90;;;;;;6275998;22;20015;-47
2023/09/25 07:58:18;;;;;;;2.42;2.03;;;17.00;99.90;;;;;;6275729;22;20015;-49
2023/09/25 08:00:45;;;;;;;3.30;2.50;;;17.00;99.90;;;;;;6278338;22;20020;-49
2023/09/25 08:03:15;;;;;;;4.77;2.30;;;17.10;99.90;;;;;;6276335;22;20011;-48
2023/09/25 08:05:41;;;;;;;5.30;2.35;;;17.10;99.90;;;;;;6276399;22;20065;-47
2023/09/25 08:08:08;;;;;;;4.75;2.30;;;17.20;99.90;;;;;;6274367;22;20019;-46
2023/09/25 08:10:34;;;;;;;3.65;2.30;;;17.10;99.90;;;;;;6275235;22;20416;-47
2023/09/25 08:12:59;;;;;;;3.90;2.30;;;17.20;99.90;;;;;;6275642;22;20012;-49
2023/09/25 08:15:25;;;;;;;3.75;2.40;;;17.30;99.90;;;;;;6275190;22;20015;-49
2023/09/25 08:17:51;;;;;;;3.00;2.17;;;17.30;99.90;;;;;;6274855;22;20020;-47
2023/09/25 08:20:22;;;;;;;3.55;2.97;;;17.40;99.90;;;;;;6275216;22;20022;-51
2023/09/25 08:22:52;;;;;;;4.93;2.42;;;17.40;99.90;;;;;;6222299;22;20037;-48
2023/09/25 08:25:18;;;;;;;4.30;2.33;;;17.50;99.90;;;;;;6274442;22;20016;-47
2023/09/25 08:27:44;;;;;;;3.80;2.03;;;17.50;99.90;;;;;;6275843;22;20012;-49
2023/09/25 08:30:11;;;;;;;3.42;2.35;;;17.70;99.90;;;;;;6247891;22;20430;-49
2023/09/25 08:32:37;;;;;;;7.72;2.10;;;17.70;99.90;;;;;;6275996;22;20463;-50
2023/09/25 08:35:03;;;;;;;3.17;2.00;;;17.90;99.90;;;;;;6275380;22;20016;-47
2023/09/25 08:37:29;;;;;;;3.17;1.90;;;18.10;99.90;;;;;;6275604;22;20065;-47
2023/09/25 08:39:56;;;;;;;3.53;2.20;;;18.20;99.90;;;;;;6272526;22;20024;-49
2023/09/25 08:42:24;;;;;;;3.95;2.03;;;18.60;99.90;;;;;;6274076;22;20035;-48
2023/09/25 08:44:54;;;;;;;2.92;1.90;;;18.70;99.90;;;;;;6274972;22;20011;-49
2023/09/25 08:47:20;;;;;;;2.55;2.03;;;18.80;99.90;;;;;;6275634;22;20015;-49
2023/09/25 08:49:50;;;;;;;4.00;2.42;;;18.60;99.90;;;;;;6275322;22;20019;-49
2023/09/25 08:52:17;;;;;;;2.65;2.00;;;18.60;99.90;;;;;;6276329;22;20105;-48
2023/09/25 08:54:42;;;;;;;3.47;1.90;;;18.60;99.90;;;;;;6276045;22;20098;-49
2023/09/25 08:57:09;;;;;;;6.38;2.00;;;18.60;99.90;;;;;;6275775;22;20046;-47
2023/09/25 08:59:37;;;;;;;4.32;2.20;;;18.40;99.90;;;;;;6276499;22;20036;-47
2023/09/25 09:02:05;;;;;;;5.00;2.08;;;18.40;99.90;;;;;;6275761;22;20093;-49
2023/09/25 09:04:30;;;;;;;3.63;2.05;;;18.60;99.90;;;;;;6247507;22;20015;-50
2023/09/25 09:06:56;;;;;;;2.90;1.88;;;18.80;99.90;;;;;;6246803;22;20023;-48
2023/09/25 09:09:22;;;;;;;5.60;2.38;;;19.00;99.90;;;;;;6275186;22;20436;-46
2023/09/25 09:11:51;;;;;;;3.30;2.00;;;19.20;99.90;;;;;;6275119;22;20256;-49
2023/09/25 09:14:40;;;;;;;5.70;2.40;;;19.30;99.90;;;;;;6274466;22;20460;-47
2023/09/25 09:17:09;;;;;;;3.55;2.10;;;19.30;99.90;;;;;;6274987;22;20008;-47
2023/09/25 09:19:55;;;;;;;5.00;2.28;;;19.50;99.90;;;;;;6247655;22;20087;-49
2023/09/25 09:22:21;;;;;;;5.68;2.08;;;19.60;99.90;;;;;;6275879;22;20019;-51
2023/09/25 09:24:51;;;;;;;4.90;2.58;;;19.80;99.90;;;;;;6247238;22;20095;-48
2023/09/25 09:27:20;;;;;;;3.30;1.90;;;19.80;99.90;;;;;;6248065;22;20432;-49
2023/09/25 09:29:47;;;;;;;6.28;2.15;;;20.00;99.90;;;;;;6275416;22;20086;-47
2023/09/25 09:32:14;;;;;;;3.85;2.05;;;19.90;99.90;;;;;;6275662;22;20022;-47
2023/09/25 09:34:40;;;;;;;3.90;1.80;;;20.10;99.90;;;;;;6275391;22;20054;-48
2023/09/25 09:37:09;;;;;;;5.57;2.22;;;20.10;99.90;;;;;;6275345;22;20081;-50
2023/09/25 09:39:36;;;;;;;3.60;1.95;;;20.10;99.90;;;;;;6275328;22;20023;-47
2023/09/25 09:42:08;;;;;;;2.90;2.03;;;20.00;99.90;;;;;;6275938;22;20016;-54
2023/09/25 09:44:35;;;;;;;2.70;1.75;;;20.00;99.90;;;;;;6275911;22;20126;-50
2023/09/25 09:47:08;;;;;;;2.63;1.90;;;19.90;99.90;;;;;;6275536;22;20130;-50
2023/09/25 09:49:39;;;;;;;4.28;2.25;;;19.80;99.90;;;;;;6275345;22;20008;-50
2023/09/25 09:52:06;;;;;;;3.47;2.00;;;19.80;99.90;;;;;;6275424;22;20015;-50
2023/09/25 09:54:38;;;;;;;2.88;1.95;;;19.90;99.90;;;;;;6275487;22;20022;-48
2023/09/25 09:57:04;;;;;;;3.70;1.90;;;19.90;99.90;;;;;;6274983;22;20490;-50
2023/09/25 09:59:30;;;;;;;4.30;2.25;;;19.90;99.90;;;;;;6248427;22;20145;-47
2023/09/25 10:01:57;;;;;;;6.53;2.00;;;20.00;99.90;;;;;;6275943;22;20008;-50
2023/09/25 10:04:24;;;;;;;7.15;2.10;;;20.10;99.90;;;;;;6275506;22;20374;-47
2023/09/25 10:06:57;;;;;;;2.70;1.90;;;20.30;99.90;;;;;;6275831;22;20016;-48
2023/09/25 10:09:26;;;;;;;3.22;2.13;;;20.30;99.90;;;;;;6250550;22;20019;-48
2023/09/25 10:11:54;;;;;;;3.35;2.00;;;20.50;99.90;;;;;;6249338;22;20404;-49
2023/09/25 10:14:25;;;;;;;7.25;2.08;;;20.40;99.90;;;;;;6276860;22;20023;-51
2023/09/25 10:17:08;;;;;;;3.83;2.00;;;20.40;99.90;;;;;;6276977;22;20029;-48
2023/09/25 10:19:37;;;;;;;6.22;2.08;;;20.60;99.90;;;;;;6277438;22;20015;-48
2023/09/25 10:22:15;;;;;;;3.38;2.20;;;20.60;99.90;;;;;;6277046;22;20102;-48
2023/09/25 10:24:42;;;;;;;3.90;2.00;;;20.60;99.90;;;;;;6277020;22;20040;-47
2023/09/25 10:27:10;;;;;;;4.07;1.95;;;20.70;99.90;;;;;;6276594;22;20015;-50
2023/09/25 10:29:36;;;;;;;3.75;2.03;;;20.80;99.90;;;;;;6276949;22;20023;-47
2023/09/25 10:32:03;;;;;;;3.33;2.08;;;20.80;99.90;;;;;;6277278;22;20099;-50
2023/09/25 10:34:31;;;;;;;3.22;2.33;;;21.00;99.90;;;;;;6275528;22;20131;-47
2023/09/25 10:37:00;;;;;;;3.25;1.75;;;20.90;99.90;;;;;;6276708;22;20436;-48
2023/09/25 10:39:28;;;;;;;4.20;2.17;;;21.00;99.90;;;;;;6277389;22;20030;-47
2023/09/25 10:42:07;;;;;;;2.60;1.90;;;21.20;99.90;;;;;;6277521;22;20058;-48
2023/09/25 10:44:37;;;;;;;2.60;1.98;;;21.30;99.90;;;;;;6277149;22;20022;-49
2023/09/25 10:47:07;;;;;;;3.55;1.80;;;21.50;99.90;;;;;;6276362;22;20083;-50
2023/09/25 10:49:35;;;;;;;4.20;2.22;;;21.40;99.90;;;;;;6276334;22;20027;-49
2023/09/25 10:52:03;;;;;;;4.53;2.20;;;21.50;99.90;;;;;;6276724;22;20047;-47
2023/09/25 10:54:29;;;;;;;;;;;21.60;99.90;;;;;;6277096;22;20022;-48
2023/09/25 10:56:55;;;;;;;2.35;1.73;;;21.70;99.90;;;;;;6277070;22;19915;-48
2023/09/25 10:59:20;;;;;;;3.50;1.67;;;21.80;99.90;;;;;;6277496;22;20021;-48
2023/09/25 11:01:48;;;;;;;4.85;1.92;;;21.50;99.90;;;;;;6276054;22;20058;-50
2023/09/25 11:04:14;;;;;;;2.65;2.08;;;21.70;99.90;;;;;;6276835;22;20015;-49
2023/09/25 11:06:40;;;;;;;3.83;1.80;;;21.40;99.90;;;;;;6276129;22;20327;-47
2023/09/25 11:09:06;;;;;;;3.60;1.92;;;21.30;99.90;;;;;;6275225;22;20026;-47
2023/09/25 11:11:32;;;;;;;5.47;1.92;;;21.20;99.90;;;;;;6222385;22;20393;-46
2023/09/25 11:13:58;;;;;;;2.65;1.70;;;21.80;99.90;;;;;;6248915;22;20081;-47
2023/09/25 11:16:25;;;;;;;4.20;2.00;;;21.30;99.90;;;;;;6276096;22;20051;-47
2023/09/25 11:19:10;;;;;;;4.22;1.70;;;21.40;99.90;;;;;;6276177;22;20082;-50
2023/09/25 11:21:36;;;;;;;2.92;1.92;;;21.50;99.90;;;;;;6276242;22;20285;-47
2023/09/25 11:24:06;;;;;;;4.63;2.00;;;21.40;99.90;;;;;;6275435;22;20729;-47
2023/09/25 11:26:36;;;;;;;3.30;1.75;;;21.30;99.90;;;;;;6275477;22;20023;-47
2023/09/25 11:29:05;;;;;;;5.60;2.10;;;21.50;99.90;;;;;;6276160;22;20012;-48
2023/09/25 11:31:30;;;;;;;3.97;1.80;;;21.60;99.90;;;;;;6248621;22;20048;-48
2023/09/25 11:33:56;;;;;;;3.88;1.90;;;21.70;99.90;;;;;;6275993;22;20016;-49
2023/09/25 11:36:22;;;;;;;4.95;2.30;;;21.60;99.90;;;;;;6275993;22;20012;-47
2023/09/25 11:38:50;;;;;;;3.83;1.90;;;21.80;99.90;;;;;;6276019;22;20012;-47
2023/09/25 11:41:16;;;;;;;3.30;2.10;;;21.60;99.90;;;;;;6275363;22;20012;-47
2023/09/25 11:43:42;;;;;;;2.40;2.00;;;21.60;99.90;;;;;;6276169;22;20466;-47
2023/09/25 11:46:07;;;;;;;5.22;1.80;;;21.60;99.90;;;;;;6275374;22;20039;-48
2023/09/25 11:48:36;;;;;;;3.40;1.95;;;21.80;99.90;;;;;;6248133;22;20026;-48
2023/09/25 11:51:02;;;;;;;4.18;1.83;;;21.90;99.90;;;;;;6274190;22;20028;-48
2023/09/25 11:53:27;;;;;;;3.00;1.95;;;22.00;99.90;;;;;;6273957;22;20012;-46
2023/09/25 11:55:53;;;;;;;3.60;2.20;;;22.00;99.90;;;;;;6275503;22;20099;-48
2023/09/25 11:58:19;;;;;;;3.78;1.70;;;22.00;99.90;;;;;;6276163;22;20455;-49
2023/09/25 12:00:45;;;;;;;2.67;1.80;;;22.20;99.90;;;;;;6273802;22;20030;-48
2023/09/25 12:03:11;;;;;;;4.32;1.90;;;22.30;99.90;;;;;;6275652;22;20022;-50
2023/09/25 12:05:37;;;;;;;4.28;1.67;;;;;;;;;;6275403;22;20022;-48
2023/09/25 12:08:05;;;;;;;2.75;1.92;;;;;;;;;;6273322;22;20094;-50
2023/09/25 12:10:37;;;;;;;3.83;1.80;;;;;;;;;;6273214;22;20024;-48
2023/09/25 12:13:03;;;;;;;3.40;1.70;;;;;;;;;;6276223;22;20016;-48
2023/09/25 12:15:29;;;;;;;2.70;1.90;;;;;;;;;;6275135;22;20019;-48
2023/09/25 12:17:55;;;;;;;2.30;1.70;;;;;;;;;;6274749;22;20016;-50
2023/09/25 12:20:25;;;;;;;5.03;1.98;;;;;;;;;;6273658;22;20031;-49
2023/09/25 12:22:54;;;;;;;3.47;1.75;;;;;;;;;;6275830;22;20089;-48
2023/09/25 12:25:21;;;;;;;3.08;2.00;;;22.50;99.90;;;;;;6272426;22;20394;-48
2023/09/25 12:27:46;;;;;;;3.65;1.90;;;22.70;99.90;;;;;;6273597;22;20094;-48
2023/09/25 12:30:16;;;;;;;2.92;1.90;;;22.90;99.90;;;;;;6273583;22;20356;-48
2023/09/25 12:32:43;;;;;;;3.85;1.83;;;22.40;99.90;;;;;;6247923;22;20012;-49
2023/09/25 12:35:10;;;;;;;5.73;2.40;;;22.50;99.90;;;;;;6275370;22;20034;-48
2023/09/25 12:37:35;;;;;;;7.72;1.90;;;22.60;99.90;;;;;;6275304;22;20092;-48
2023/09/25 12:40:02;;;;;;;5.30;1.90;;;23.00;99.90;;;;;;6275703;22;20094;-47
2023/09/25 12:42:28;;;;;;;4.50;2.10;;;22.80;99.90;;;;;;6275052;22;20011;-47
2023/09/25 12:44:54;;;;;;;3.92;2.03;;;22.70;99.90;;;;;;6274387;22;20138;-49
2023/09/25 12:47:21;;;;;;;2.25;1.75;;;22.90;99.90;;;;;;6275077;22;20015;-48
2023/09/25 12:49:48;;;;;;;8.55;2.33;;;22.50;99.90;;;;;;6273788;22;20091;-51
2023/09/25 12:52:14;;;;;;;4.82;1.80;;;22.50;99.90;;;;;;6275142;22;20031;-47